sensor_id;sensor_type;location;lat;lon;timestamp;pressure;altitude;pressure_sealevel;temperature;humidity
42003;BME280;27693;50.506;30.832;2023-01-27T00:00:54;100444.34;;;0.90;82.16
42003;BME280;27693;50.506;30.832;2023-01-27T00:01:56;100441.80;;;1.00;82.13
42003;BME280;27693;50.506;30.832;2023-01-27T00:02:58;100446.11;;;1.07;82.12
42003;BME280;27693;50.506;30.832;2023-01-27T00:04:00;100440.05;;;0.91;81.35
42003;BME280;27693;50.506;30.832;2023-01-27T00:05:03;100446.80;;;0.76;81.65
42003;BME280;27693;50.506;30.832;2023-01-27T00:06:06;100440.84;;;0.77;82.21
42003;BME280;27693;50.506;30.832;2023-01-27T00:07:11;100431.40;;;0.70;82.45
42003;BME280;27693;50.506;30.832;2023-01-27T00:08:13;100434.84;;;0.72;82.81
42003;BME280;27693;50.506;30.832;2023-01-27T00:09:16;100433.13;;;0.71;82.37
42003;BME280;27693;50.506;30.832;2023-01-27T00:10:19;100430.59;;;0.76;83.39
42003;BME280;27693;50.506;30.832;2023-01-27T00:11:21;100437.43;;;0.78;83.33
42003;BME280;27693;50.506;30.832;2023-01-27T00:12:43;100434.77;;;0.58;82.53
42003;BME280;27693;50.506;30.832;2023-01-27T00:14:05;100435.57;;;0.54;82.86
42003;BME280;27693;50.506;30.832;2023-01-27T00:15:09;100436.48;;;0.61;82.99
42003;BME280;27693;50.506;30.832;2023-01-27T00:16:12;100429.49;;;0.38;82.74
42003;BME280;27693;50.506;30.832;2023-01-27T00:17:15;100429.57;;;0.47;83.77
42003;BME280;27693;50.506;30.832;2023-01-27T00:18:17;100435.50;;;0.45;83.52
42003;BME280;27693;50.506;30.832;2023-01-27T00:19:19;100430.37;;;0.43;83.87
42003;BME280;27693;50.506;30.832;2023-01-27T00:20:22;100428.69;;;0.45;84.26
42003;BME280;27693;50.506;30.832;2023-01-27T00:21:43;100430.20;;;0.20;83.53
42003;BME280;27693;50.506;30.832;2023-01-27T00:23:03;100424.24;;;0.20;83.70
42003;BME280;27693;50.506;30.832;2023-01-27T00:24:24;100418.24;;;0.18;83.89
42003;BME280;27693;50.506;30.832;2023-01-27T00:25:39;100425.12;;;0.26;84.21
42003;BME280;27693;50.506;30.832;2023-01-27T00:26:41;100425.88;;;0.11;84.38
42003;BME280;27693;50.506;30.832;2023-01-27T00:27:44;100426.71;;;0.09;84.46
42003;BME280;27693;50.506;30.832;2023-01-27T00:28:46;100432.52;;;-0.08;83.96
42003;BME280;27693;50.506;30.832;2023-01-27T00:29:48;100429.12;;;-0.08;84.25
42003;BME280;27693;50.506;30.832;2023-01-27T00:30:53;100429.08;;;-0.11;84.46
42003;BME280;27693;50.506;30.832;2023-01-27T00:31:55;100435.86;;;-0.17;85.00
42003;BME280;27693;50.506;30.832;2023-01-27T00:33:16;100432.36;;;-0.25;84.87
42003;BME280;27693;50.506;30.832;2023-01-27T00:34:28;100425.64;;;-0.13;85.79
42003;BME280;27693;50.506;30.832;2023-01-27T00:35:32;100426.52;;;-0.11;85.76
42003;BME280;27693;50.506;30.832;2023-01-27T00:36:38;100428.19;;;-0.15;85.39
42003;BME280;27693;50.506;30.832;2023-01-27T00:37:41;100433.40;;;-0.07;85.93
42003;BME280;27693;50.506;30.832;2023-01-27T00:38:43;100430.84;;;-0.07;85.41
42003;BME280;27693;50.506;30.832;2023-01-27T00:39:45;100432.53;;;-0.06;85.31
42003;BME280;27693;50.506;30.832;2023-01-27T00:40:47;100433.35;;;-0.12;84.77
42003;BME280;27693;50.506;30.832;2023-01-27T00:41:53;100429.12;;;-0.05;85.21
42003;BME280;27693;50.506;30.832;2023-01-27T00:42:56;100433.47;;;0.04;85.10
42003;BME280;27693;50.506;30.832;2023-01-27T00:43:58;100424.16;;;0.10;85.23
42003;BME280;27693;50.506;30.832;2023-01-27T00:45:00;100432.67;;;0.09;84.98
42003;BME280;27693;50.506;30.832;2023-01-27T00:46:23;100425.04;;;0.14;84.27
42003;BME280;27693;50.506;30.832;2023-01-27T00:47:25;100424.20;;;0.13;84.41
42003;BME280;27693;50.506;30.832;2023-01-27T00:48:28;100425.88;;;0.10;84.36
42003;BME280;27693;50.506;30.832;2023-01-27T00:49:31;100429.37;;;0.23;84.64
42003;BME280;27693;50.506;30.832;2023-01-27T00:50:35;100429.45;;;0.32;84.62
42003;BME280;27693;50.506;30.832;2023-01-27T00:51:37;100429.45;;;0.34;84.61
42003;BME280;27693;50.506;30.832;2023-01-27T00:52:40;100427.77;;;0.39;84.17
42003;BME280;27693;50.506;30.832;2023-01-27T00:53:43;100432.93;;;0.42;84.27
42003;BME280;27693;50.506;30.832;2023-01-27T00:54:46;100424.45;;;0.47;84.53
42003;BME280;27693;50.506;30.832;2023-01-27T00:55:48;100429.61;;;0.57;84.89
42003;BME280;27693;50.506;30.832;2023-01-27T00:56:50;100423.72;;;0.69;84.56
42003;BME280;27693;50.506;30.832;2023-01-27T00:57:52;100424.59;;;0.72;84.65
42003;BME280;27693;50.506;30.832;2023-01-27T00:58:54;100417.75;;;0.71;83.89
42003;BME280;27693;50.506;30.832;2023-01-27T00:59:57;100424.52;;;0.60;83.34
42003;BME280;27693;50.506;30.832;2023-01-27T01:01:04;100421.16;;;0.70;82.84
42003;BME280;27693;50.506;30.832;2023-01-27T01:02:07;100417.75;;;0.68;82.18
42003;BME280;27693;50.506;30.832;2023-01-27T01:03:09;100411.66;;;0.52;82.72
42003;BME280;27693;50.506;30.832;2023-01-27T01:04:11;100410.70;;;0.36;82.80
42003;BME280;27693;50.506;30.832;2023-01-27T01:05:14;100401.25;;;0.26;82.75
42003;BME280;27693;50.506;30.832;2023-01-27T01:06:17;100408.09;;;0.27;83.30
42003;BME280;27693;50.506;30.832;2023-01-27T01:07:23;100410.70;;;0.36;83.93
42003;BME280;27693;50.506;30.832;2023-01-27T01:08:26;100411.45;;;0.23;83.94
42003;BME280;27693;50.506;30.832;2023-01-27T01:09:28;100407.22;;;0.28;84.23
42003;BME280;27693;50.506;30.832;2023-01-27T01:10:31;100405.61;;;0.39;84.40
42003;BME280;27693;50.506;30.832;2023-01-27T01:11:33;100409.85;;;0.34;84.18
42003;BME280;27693;50.506;30.832;2023-01-27T01:12:36;100402.17;;;0.34;84.06
42003;BME280;27693;50.506;30.832;2023-01-27T01:13:39;100399.54;;;0.26;84.24
42003;BME280;27693;50.506;30.832;2023-01-27T01:14:41;100395.33;;;0.33;84.79
42003;BME280;27693;50.506;30.832;2023-01-27T01:15:44;100402.89;;;0.21;83.57
42003;BME280;27693;50.506;30.832;2023-01-27T01:16:46;100399.41;;;0.11;83.62
42003;BME280;27693;50.506;30.832;2023-01-27T01:17:48;100398.66;;;0.20;84.48
42003;BME280;27693;50.506;30.832;2023-01-27T01:18:50;100399.45;;;0.12;83.99
42003;BME280;27693;50.506;30.832;2023-01-27T01:19:53;100398.61;;;0.17;84.38
42003;BME280;27693;50.506;30.832;2023-01-27T01:20:55;100406.30;;;0.18;84.40
42003;BME280;27693;50.506;30.832;2023-01-27T01:21:57;100407.17;;;0.22;84.98
42003;BME280;27693;50.506;30.832;2023-01-27T01:22:59;100402.02;;;0.15;84.62
42003;BME280;27693;50.506;30.832;2023-01-27T01:24:01;100406.29;;;0.17;84.54
42003;BME280;27693;50.506;30.832;2023-01-27T01:25:04;100400.29;;;0.11;84.47
42003;BME280;27693;50.506;30.832;2023-01-27T01:26:10;100403.59;;;-0.02;84.63
42003;BME280;27693;50.506;30.832;2023-01-27T01:27:13;100407.92;;;0.07;84.92
42003;BME280;27693;50.506;30.832;2023-01-27T01:28:15;100408.84;;;0.13;85.23
42003;BME280;27693;50.506;30.832;2023-01-27T01:29:17;100397.73;;;0.11;84.66
42003;BME280;27693;50.506;30.832;2023-01-27T01:30:19;100400.33;;;0.18;84.94
42003;BME280;27693;50.506;30.832;2023-01-27T01:31:22;100397.69;;;0.05;84.54
42003;BME280;27693;50.506;30.832;2023-01-27T01:32:24;100405.27;;;-0.06;84.19
42003;BME280;27693;50.506;30.832;2023-01-27T01:33:26;100396.72;;;-0.06;84.64
42003;BME280;27693;50.506;30.832;2023-01-27T01:34:28;100400.20;;;-0.01;85.14
42003;BME280;27693;50.506;30.832;2023-01-27T01:35:35;100400.29;;;0.11;85.68
42003;BME280;27693;50.506;30.832;2023-01-27T01:36:36;100396.01;;;0.09;85.25
42003;BME280;27693;50.506;30.832;2023-01-27T01:37:39;100395.17;;;0.14;85.88
42003;BME280;27693;50.506;30.832;2023-01-27T01:38:41;100394.42;;;0.25;86.44
42003;BME280;27693;50.506;30.832;2023-01-27T01:39:44;100397.77;;;0.16;85.31
42003;BME280;27693;50.506;30.832;2023-01-27T01:40:46;100387.45;;;0.08;85.08
42003;BME280;27693;50.506;30.832;2023-01-27T01:41:49;100393.36;;;0.01;84.73
42003;BME280;27693;50.506;30.832;2023-01-27T01:43:57;100383.26;;;0.17;85.53
42003;BME280;27693;50.506;30.832;2023-01-27T01:46:38;100384.09;;;0.12;85.65
42003;BME280;27693;50.506;30.832;2023-01-27T05:37:10;100357.80;;;-1.40;93.25
42003;BME280;27693;50.506;30.832;2023-01-27T05:38:15;100361.26;;;-1.35;93.49
42003;BME280;27693;50.506;30.832;2023-01-27T05:39:17;100363.05;;;-1.28;93.38
42003;BME280;27693;50.506;30.832;2023-01-27T05:40:20;100361.41;;;-1.23;93.23
42003;BME280;27693;50.506;30.832;2023-01-27T05:41:22;100358.15;;;-1.13;93.70
42003;BME280;27693;50.506;30.832;2023-01-27T05:42:26;100358.22;;;-1.06;93.46
42003;BME280;27693;50.506;30.832;2023-01-27T05:43:31;100369.27;;;-1.09;91.94
42003;BME280;27693;50.506;30.832;2023-01-27T05:44:33;100363.38;;;-1.03;91.69
42003;BME280;27693;50.506;30.832;2023-01-27T05:45:36;100358.41;;;-0.91;92.20
42003;BME280;27693;50.506;30.832;2023-01-27T05:46:39;100355.10;;;-0.81;92.17
42003;BME280;27693;50.506;30.832;2023-01-27T05:47:41;100354.43;;;-0.66;92.62
42003;BME280;27693;50.506;30.832;2023-01-27T05:48:46;100355.44;;;-0.50;92.98
42003;BME280;27693;50.506;30.832;2023-01-27T05:49:48;100356.27;;;-0.52;91.76
42003;BME280;27693;50.506;30.832;2023-01-27T05:50:55;100350.33;;;-0.48;91.46
42003;BME280;27693;50.506;30.832;2023-01-27T05:51:58;100353.72;;;-0.51;90.29
42003;BME280;27693;50.506;30.832;2023-01-27T05:53:01;100351.94;;;-0.58;89.07
42003;BME280;27693;50.506;30.832;2023-01-27T05:54:05;100348.44;;;-0.68;88.51
42003;BME280;27693;50.506;30.832;2023-01-27T05:55:08;100351.77;;;-0.73;88.99
42003;BME280;27693;50.506;30.832;2023-01-27T05:56:14;100345.11;;;-0.59;89.39
42003;BME280;27693;50.506;30.832;2023-01-27T05:57:17;100360.55;;;-0.50;89.25
42003;BME280;27693;50.506;30.832;2023-01-27T05:58:21;100356.11;;;-0.65;88.08
42003;BME280;27693;50.506;30.832;2023-01-27T05:59:23;100356.11;;;-0.65;88.12
42003;BME280;27693;50.506;30.832;2023-01-27T06:00:26;100363.77;;;-0.66;88.07
42003;BME280;27693;50.506;30.832;2023-01-27T06:01:31;100361.16;;;-0.71;87.99
42003;BME280;27693;50.506;30.832;2023-01-27T06:02:35;100358.72;;;-0.60;88.58
42003;BME280;27693;50.506;30.832;2023-01-27T06:03:39;100358.72;;;-0.60;88.12
42003;BME280;27693;50.506;30.832;2023-01-27T06:04:43;100360.50;;;-0.53;88.59
42003;BME280;27693;50.506;30.832;2023-01-27T06:05:54;100360.60;;;-0.43;88.90
42003;BME280;27693;50.506;30.832;2023-01-27T06:06:57;100357.26;;;-0.36;89.34
42003;BME280;27693;50.506;30.832;2023-01-27T06:07:59;100364.00;;;-0.44;88.32
42003;BME280;27693;50.506;30.832;2023-01-27T06:09:02;100364.05;;;-0.38;88.40
42003;BME280;27693;50.506;30.832;2023-01-27T06:10:05;100358.98;;;-0.32;88.56
42003;BME280;27693;50.506;30.832;2023-01-27T06:11:07;100369.27;;;-0.26;88.46
42003;BME280;27693;50.506;30.832;2023-01-27T06:12:11;100363.37;;;-0.19;88.64
42003;BME280;27693;50.506;30.832;2023-01-27T06:13:13;100358.11;;;-0.34;87.55
42003;BME280;27693;50.506;30.832;2023-01-27T06:14:15;100368.47;;;-0.20;87.57
42003;BME280;27693;50.506;30.832;2023-01-27T06:15:17;100365.97;;;-0.14;87.45
42003;BME280;27693;50.506;30.832;2023-01-27T06:16:21;100366.81;;;-0.13;87.28
42003;BME280;27693;50.506;30.832;2023-01-27T06:17:24;100367.69;;;-0.11;86.89
42003;BME280;27693;50.506;30.832;2023-01-27T06:18:27;100368.57;;;-0.09;86.59
42003;BME280;27693;50.506;30.832;2023-01-27T06:19:28;100362.56;;;-0.14;86.65
42003;BME280;27693;50.506;30.832;2023-01-27T06:20:31;100368.27;;;-0.45;86.16
42003;BME280;27693;50.506;30.832;2023-01-27T06:21:33;100375.95;;;-0.40;86.46
42003;BME280;27693;50.506;30.832;2023-01-27T06:22:35;100374.32;;;-0.35;86.80
42003;BME280;27693;50.506;30.832;2023-01-27T06:23:39;100382.05;;;-0.27;86.97
42003;BME280;27693;50.506;30.832;2023-01-27T06:24:42;100373.59;;;-0.20;86.99
42003;BME280;27693;50.506;30.832;2023-01-27T06:25:46;100377.08;;;-0.10;87.63
42003;BME280;27693;50.506;30.832;2023-01-27T06:26:49;100381.45;;;0.00;88.29
42003;BME280;27693;50.506;30.832;2023-01-27T06:27:56;100375.41;;;-0.05;87.21
42003;BME280;27693;50.506;30.832;2023-01-27T06:28:58;100377.88;;;-0.18;85.94
42003;BME280;27693;50.506;30.832;2023-01-27T06:30:00;100371.12;;;-0.11;85.65
42003;BME280;27693;50.506;30.832;2023-01-27T06:31:11;100381.49;;;0.06;85.90
42003;BME280;27693;50.506;30.832;2023-01-27T06:32:13;100373.82;;;0.09;86.09
42003;BME280;27693;50.506;30.832;2023-01-27T06:33:15;100372.02;;;-0.06;85.42
42003;BME280;27693;50.506;30.832;2023-01-27T06:34:18;100385.64;;;-0.08;85.00
42003;BME280;27693;50.506;30.832;2023-01-27T06:35:20;100379.64;;;-0.10;84.67
42003;BME280;27693;50.506;30.832;2023-01-27T06:36:22;100372.89;;;-0.02;85.39
42003;BME280;27693;50.506;30.832;2023-01-27T06:37:29;100381.27;;;-0.19;84.85
42003;BME280;27693;50.506;30.832;2023-01-27T06:38:32;100379.48;;;-0.29;84.74
42003;BME280;27693;50.506;30.832;2023-01-27T06:39:35;100388.93;;;-0.22;85.33
42003;BME280;27693;50.506;30.832;2023-01-27T06:40:38;100379.59;;;-0.13;85.76
42003;BME280;27693;50.506;30.832;2023-01-27T06:41:40;100373.64;;;-0.14;85.59
42003;BME280;27693;50.506;30.832;2023-01-27T06:42:42;100377.13;;;-0.03;86.00
42003;BME280;27693;50.506;30.832;2023-01-27T06:43:45;100372.94;;;0.04;86.38
42003;BME280;27693;50.506;30.832;2023-01-27T06:44:47;100371.22;;;0.03;85.64
42003;BME280;27693;50.506;30.832;2023-01-27T06:45:51;100372.98;;;0.09;85.54
42003;BME280;27693;50.506;30.832;2023-01-27T06:46:54;100374.70;;;0.14;85.54
42003;BME280;27693;50.506;30.832;2023-01-27T06:47:58;100364.50;;;0.16;85.35
42003;BME280;27693;50.506;30.832;2023-01-27T06:49:01;100374.70;;;0.14;85.21
42003;BME280;27693;50.506;30.832;2023-01-27T06:50:03;100376.42;;;0.12;85.16
42003;BME280;27693;50.506;30.832;2023-01-27T06:51:06;100362.61;;;-0.08;84.41
42003;BME280;27693;50.506;30.832;2023-01-27T06:52:08;100369.50;;;0.01;84.81
42003;BME280;27693;50.506;30.832;2023-01-27T06:53:10;100368.56;;;-0.11;84.52
42003;BME280;27693;50.506;30.832;2023-01-27T06:54:13;100375.36;;;-0.11;84.37
42003;BME280;27693;50.506;30.832;2023-01-27T06:55:16;100379.55;;;-0.20;84.32
42003;BME280;27693;50.506;30.832;2023-01-27T06:56:20;100364.25;;;-0.17;84.97
42003;BME280;27693;50.506;30.832;2023-01-27T06:57:22;100371.14;;;-0.06;85.16
42003;BME280;27693;50.506;30.832;2023-01-27T06:58:24;100372.02;;;-0.06;85.49
42003;BME280;27693;50.506;30.832;2023-01-27T06:59:28;100378.85;;;-0.02;85.99
42003;BME280;27693;50.506;30.832;2023-01-27T07:00:30;100382.30;;;0.04;86.42
42003;BME280;27693;50.506;30.832;2023-01-27T07:01:33;100379.73;;;0.02;85.36
42003;BME280;27693;50.506;30.832;2023-01-27T07:02:36;100372.94;;;0.06;85.57
42003;BME280;27693;50.506;30.832;2023-01-27T07:03:39;100384.10;;;0.15;85.93
42003;BME280;27693;50.506;30.832;2023-01-27T07:04:41;100374.66;;;0.08;84.94
42003;BME280;27693;50.506;30.832;2023-01-27T07:05:43;100379.81;;;0.11;84.95
42003;BME280;27693;50.506;30.832;2023-01-27T07:06:45;100379.77;;;0.05;84.98
42003;BME280;27693;50.506;30.832;2023-01-27T07:07:47;100379.77;;;0.05;85.24
42003;BME280;27693;50.506;30.832;2023-01-27T07:08:50;100380.52;;;-0.08;84.38
42003;BME280;27693;50.506;30.832;2023-01-27T07:09:54;100373.73;;;-0.03;84.57
42003;BME280;27693;50.506;30.832;2023-01-27T07:10:56;100375.45;;;-0.01;85.12
42003;BME280;27693;50.506;30.832;2023-01-27T07:11:59;100374.66;;;0.08;85.40
42003;BME280;27693;50.506;30.832;2023-01-27T07:13:05;100377.27;;;0.14;85.85
42003;BME280;27693;50.506;30.832;2023-01-27T07:14:08;100378.94;;;0.08;85.30
42003;BME280;27693;50.506;30.832;2023-01-27T07:15:18;100371.30;;;0.15;85.71
42003;BME280;27693;50.506;30.832;2023-01-27T07:16:17;100371.30;;;0.15;85.71
42003;BME280;27693;50.506;30.832;2023-01-27T07:17:20;100371.34;;;0.20;86.20
42003;BME280;27693;50.506;30.832;2023-01-27T07:18:25;100365.30;;;0.09;85.39
42003;BME280;27693;50.506;30.832;2023-01-27T07:19:27;100367.82;;;0.04;85.28
42003;BME280;27693;50.506;30.832;2023-01-27T07:20:31;100363.55;;;0.03;85.46
42003;BME280;27693;50.506;30.832;2023-01-27T07:21:34;100369.41;;;-0.10;84.77
42003;BME280;27693;50.506;30.832;2023-01-27T07:22:37;100376.24;;;-0.09;85.49
42003;BME280;27693;50.506;30.832;2023-01-27T07:23:39;100372.90;;;0.01;86.04
42003;BME280;27693;50.506;30.832;2023-01-27T07:24:41;100369.54;;;0.05;86.20
42003;BME280;27693;50.506;30.832;2023-01-27T07:25:44;100373.86;;;0.12;86.79
42003;BME280;27693;50.506;30.832;2023-01-27T07:26:47;100372.98;;;0.10;86.33
42003;BME280;27693;50.506;30.832;2023-01-27T07:27:50;100374.74;;;0.18;85.94
42003;BME280;27693;50.506;30.832;2023-01-27T07:28:52;100374.75;;;0.21;85.71
42003;BME280;27693;50.506;30.832;2023-01-27T07:29:56;100383.34;;;0.26;85.08
42003;BME280;27693;50.506;30.832;2023-01-27T07:31:01;100383.37;;;0.32;84.91
42003;BME280;27693;50.506;30.832;2023-01-27T07:32:04;100383.37;;;0.35;84.59
42003;BME280;27693;50.506;30.832;2023-01-27T07:33:08;100379.90;;;0.24;84.25
42003;BME280;27693;50.506;30.832;2023-01-27T07:34:11;100379.94;;;0.30;84.46
42003;BME280;27693;50.506;30.832;2023-01-27T07:35:15;100379.94;;;0.27;83.86
42003;BME280;27693;50.506;30.832;2023-01-27T07:36:19;100379.02;;;0.20;84.00
42003;BME280;27693;50.506;30.832;2023-01-27T07:37:21;100372.10;;;0.07;83.60
42003;BME280;27693;50.506;30.832;2023-01-27T07:38:23;100379.59;;;-0.13;83.38
42003;BME280;27693;50.506;30.832;2023-01-27T07:39:26;100372.80;;;-0.11;84.13
42003;BME280;27693;50.506;30.832;2023-01-27T07:40:28;100371.08;;;-0.15;84.55
42003;BME280;27693;50.506;30.832;2023-01-27T07:41:30;100379.50;;;-0.26;84.65
42003;BME280;27693;50.506;30.832;2023-01-27T07:42:33;100369.27;;;-0.26;85.21
42003;BME280;27693;50.506;30.832;2023-01-27T07:43:35;100372.77;;;-0.16;85.81
42003;BME280;27693;50.506;30.832;2023-01-27T07:44:42;100370.24;;;-0.14;85.48
42003;BME280;27693;50.506;30.832;2023-01-27T07:45:45;100373.64;;;-0.14;85.71
42003;BME280;27693;50.506;30.832;2023-01-27T07:46:49;100367.73;;;-0.05;86.15
42003;BME280;27693;50.506;30.832;2023-01-27T07:47:51;100365.22;;;-0.02;85.94
42003;BME280;27693;50.506;30.832;2023-01-27T07:48:53;100367.78;;;0.01;86.12
42003;BME280;27693;50.506;30.832;2023-01-27T07:49:56;100364.20;;;-0.20;85.06
42003;BME280;27693;50.506;30.832;2023-01-27T07:50:58;100364.20;;;-0.23;85.18
42003;BME280;27693;50.506;30.832;2023-01-27T07:52:01;100364.10;;;-0.32;84.98
42003;BME280;27693;50.506;30.832;2023-01-27T07:53:04;100365.86;;;-0.28;85.08
42003;BME280;27693;50.506;30.832;2023-01-27T07:54:06;100360.80;;;-0.19;85.37
42003;BME280;27693;50.506;30.832;2023-01-27T07:55:09;100365.97;;;-0.12;85.95
42003;BME280;27693;50.506;30.832;2023-01-27T07:56:12;100365.97;;;-0.12;85.32
42003;BME280;27693;50.506;30.832;2023-01-27T07:57:14;100367.73;;;-0.08;85.50
42003;BME280;27693;50.506;30.832;2023-01-27T07:58:16;100360.84;;;-0.15;84.92
42003;BME280;27693;50.506;30.832;2023-01-27T07:59:18;100360.94;;;-0.03;85.73
42003;BME280;27693;50.506;30.832;2023-01-27T08:00:22;100361.02;;;0.06;86.11
42003;BME280;27693;50.506;30.832;2023-01-27T08:01:25;100357.59;;;0.06;86.28
42003;BME280;27693;50.506;30.832;2023-01-27T08:02:28;100358.51;;;0.12;86.57
42003;BME280;27693;50.506;30.832;2023-01-27T08:03:34;100362.86;;;0.26;86.87
42003;BME280;27693;50.506;30.832;2023-01-27T08:04:36;100364.62;;;0.36;86.53
42003;BME280;27693;50.506;30.832;2023-01-27T08:05:40;100359.53;;;0.39;85.66
42003;BME280;27693;50.506;30.832;2023-01-27T08:06:44;100357.78;;;0.35;84.75
42003;BME280;27693;50.506;30.832;2023-01-27T08:07:46;100356.06;;;0.31;84.09
42003;BME280;27693;50.506;30.832;2023-01-27T08:08:48;100356.94;;;0.33;84.00
42003;BME280;27693;50.506;30.832;2023-01-27T08:09:50;100361.22;;;0.34;84.29
42003;BME280;27693;50.506;30.832;2023-01-27T08:11:00;100350.95;;;0.29;83.69
42003;BME280;27693;50.506;30.832;2023-01-27T08:12:02;100356.09;;;0.34;84.15
42003;BME280;27693;50.506;30.832;2023-01-27T08:13:05;100357.78;;;0.35;83.83
42003;BME280;27693;50.506;30.832;2023-01-27T08:14:07;100354.31;;;0.24;83.14
42003;BME280;27693;50.506;30.832;2023-01-27T08:15:09;100350.95;;;0.29;83.57
42003;BME280;27693;50.506;30.832;2023-01-27T08:16:13;100356.98;;;0.39;84.37
42003;BME280;27693;50.506;30.832;2023-01-27T08:17:16;100358.73;;;0.46;84.55
42003;BME280;27693;50.506;30.832;2023-01-27T08:18:18;100351.89;;;0.44;83.89
42003;BME280;27693;50.506;30.832;2023-01-27T08:19:21;100359.60;;;0.50;83.80
42003;BME280;27693;50.506;30.832;2023-01-27T08:20:24;100360.45;;;0.51;83.14
42003;BME280;27693;50.506;30.832;2023-01-27T08:21:28;100357.01;;;0.47;82.56
42003;BME280;27693;50.506;30.832;2023-01-27T08:22:33;100358.66;;;0.37;81.72
42003;BME280;27693;50.506;30.832;2023-01-27T08:23:35;100357.78;;;0.35;81.21
42003;BME280;27693;50.506;30.832;2023-01-27T08:24:38;100352.66;;;0.35;81.67
42003;BME280;27693;50.506;30.832;2023-01-27T08:25:40;100353.50;;;0.29;82.10
42003;BME280;27693;50.506;30.832;2023-01-27T08:26:42;100352.70;;;0.38;83.19
42003;BME280;27693;50.506;30.832;2023-01-27T08:27:53;100360.38;;;0.40;82.69
42003;BME280;27693;50.506;30.832;2023-01-27T08:28:57;100354.34;;;0.27;82.45
42003;BME280;27693;50.506;30.832;2023-01-27T08:29:59;100359.47;;;0.30;82.43
42003;BME280;27693;50.506;30.832;2023-01-27T08:31:11;100347.55;;;0.32;82.40
42003;BME280;27693;50.506;30.832;2023-01-27T08:32:10;100356.13;;;0.43;82.20
42003;BME280;27693;50.506;30.832;2023-01-27T08:33:14;100351.92;;;0.52;82.56
42003;BME280;27693;50.506;30.832;2023-01-27T08:34:16;100347.67;;;0.54;83.58
42003;BME280;27693;50.506;30.832;2023-01-27T08:35:20;100351.95;;;0.56;83.39
42003;BME280;27693;50.506;30.832;2023-01-27T08:36:22;100355.41;;;0.65;82.77
42003;BME280;27693;50.506;30.832;2023-01-27T08:37:26;100349.42;;;0.61;81.25
42003;BME280;27693;50.506;30.832;2023-01-27T08:38:28;100344.30;;;0.61;81.23
42003;BME280;27693;50.506;30.832;2023-01-27T08:39:32;100347.73;;;0.66;81.31
42003;BME280;27693;50.506;30.832;2023-01-27T08:40:38;100344.32;;;0.70;81.99
42003;BME280;27693;50.506;30.832;2023-01-27T08:41:42;100349.39;;;0.56;80.91
42003;BME280;27693;50.506;30.832;2023-01-27T08:42:45;100350.29;;;0.68;80.80
42003;BME280;27693;50.506;30.832;2023-01-27T08:43:48;100348.57;;;0.67;79.95
42003;BME280;27693;50.506;30.832;2023-01-27T08:44:51;100344.33;;;0.67;79.84
42003;BME280;27693;50.506;30.832;2023-01-27T08:45:53;100344.30;;;0.61;79.77
42003;BME280;27693;50.506;30.832;2023-01-27T08:46:58;100349.42;;;0.64;79.40
42003;BME280;27693;50.506;30.832;2023-01-27T08:48:03;100339.20;;;0.67;79.37
42003;BME280;27693;50.506;30.832;2023-01-27T08:49:07;100348.42;;;0.39;79.16
42003;BME280;27693;50.506;30.832;2023-01-27T08:50:10;100342.49;;;0.43;79.84
42003;BME280;27693;50.506;30.832;2023-01-27T08:51:14;100345.05;;;0.43;80.01
42003;BME280;27693;50.506;30.832;2023-01-27T08:52:17;100339.02;;;0.33;80.23
42003;BME280;27693;50.506;30.832;2023-01-27T08:53:20;100343.30;;;0.34;80.05
42003;BME280;27693;50.506;30.832;2023-01-27T08:54:24;100338.92;;;0.21;80.32
42003;BME280;27693;50.506;30.832;2023-01-27T08:55:29;100339.76;;;0.15;80.38
42003;BME280;27693;50.506;30.832;2023-01-27T08:56:32;100343.16;;;0.12;80.56
42003;BME280;27693;50.506;30.832;2023-01-27T08:57:35;100345.67;;;0.09;81.42
42003;BME280;27693;50.506;30.832;2023-01-27T08:58:39;100344.80;;;0.07;81.84
42003;BME280;27693;50.506;30.832;2023-01-27T08:59:41;100348.27;;;0.14;82.62
42003;BME280;27693;50.506;30.832;2023-01-27T09:00:44;100340.67;;;0.28;83.06
42003;BME280;27693;50.506;30.832;2023-01-27T09:01:48;100344.98;;;0.35;82.59
42003;BME280;27693;50.506;30.832;2023-01-27T09:02:51;100338.22;;;0.42;83.23
42003;BME280;27693;50.506;30.832;2023-01-27T09:03:53;100347.64;;;0.51;82.95
42003;BME280;27693;50.506;30.832;2023-01-27T09:04:55;100347.64;;;0.52;82.16
42003;BME280;27693;50.506;30.832;2023-01-27T09:05:58;100341.73;;;0.62;81.69
42003;BME280;27693;50.506;30.832;2023-01-27T09:07:02;100344.32;;;0.70;82.07
42003;BME280;27693;50.506;30.832;2023-01-27T09:08:06;100341.78;;;0.75;82.11
42003;BME280;27693;50.506;30.832;2023-01-27T09:09:09;100336.72;;;0.84;82.53
42003;BME280;27693;50.506;30.832;2023-01-27T09:10:14;100343.55;;;0.88;82.58
42003;BME280;27693;50.506;30.832;2023-01-27T09:11:17;100332.48;;;0.94;82.95
42003;BME280;27693;50.506;30.832;2023-01-27T09:12:19;100332.50;;;1.00;82.75
42003;BME280;27693;50.506;30.832;2023-01-27T09:13:22;100325.66;;;0.96;81.59
42003;BME280;27693;50.506;30.832;2023-01-27T09:14:24;100334.17;;;0.89;80.47
42003;BME280;27693;50.506;30.832;2023-01-27T09:15:26;100339.25;;;0.83;80.37
42003;BME280;27693;50.506;30.832;2023-01-27T09:16:29;100337.56;;;0.82;80.27
42003;BME280;27693;50.506;30.832;2023-01-27T09:17:32;100340.98;;;0.87;80.31
42003;BME280;27693;50.506;30.832;2023-01-27T09:18:34;100346.06;;;0.77;80.82
42003;BME280;27693;50.506;30.832;2023-01-27T09:19:36;100346.11;;;0.87;81.34
42003;BME280;27693;50.506;30.832;2023-01-27T09:20:39;100350.39;;;0.88;81.59
42003;BME280;27693;50.506;30.832;2023-01-27T09:21:41;100355.54;;;0.94;81.66
42003;BME280;27693;50.506;30.832;2023-01-27T09:22:44;100342.72;;;0.97;82.33